createdAt,value
2023-05-01T00:00:14.531Z,100.00
2023-05-01T00:02:48.447Z,100.00
2023-05-01T00:05:18.401Z,100.00
2023-05-01T00:07:48.061Z,100.00
2023-05-01T00:10:20.588Z,100.00
2023-05-01T00:12:50.319Z,100.00
2023-05-01T00:15:20.384Z,100.00
2023-05-01T00:17:50.220Z,100.00
2023-05-01T00:20:19.967Z,100.00
2023-05-01T00:22:49.605Z,100.00
2023-05-01T00:25:21.901Z,100.00
2023-05-01T00:27:51.903Z,100.00
2023-05-01T00:30:21.629Z,100.00
2023-05-01T00:32:51.415Z,100.00
2023-05-01T00:35:21.128Z,100.00
2023-05-01T00:37:51.071Z,100.00
2023-05-01T00:40:23.492Z,100.00
2023-05-01T00:42:53.197Z,100.00
2023-05-01T00:45:23.405Z,100.00
2023-05-01T00:47:53.251Z,100.00
2023-05-01T00:50:23.267Z,100.00
2023-05-01T00:52:53.259Z,100.00
2023-05-01T00:55:25.944Z,100.00
2023-05-01T00:57:56.566Z,100.00
2023-05-01T01:00:26.268Z,100.00
2023-05-01T01:02:56.120Z,100.00
2023-05-01T01:05:30.305Z,100.00
2023-05-01T01:08:08.613Z,100.00
2023-05-01T01:10:49.818Z,100.00
2023-05-01T01:13:25.833Z,100.00
2023-05-01T01:16:03.566Z,100.00
2023-05-01T01:18:38.854Z,100.00
2023-05-01T01:21:14.635Z,100.00
2023-05-01T01:24:22.288Z,100.00
2023-05-01T01:27:14.768Z,100.00
2023-05-01T01:30:15.318Z,100.00
2023-05-01T01:33:03.837Z,100.00
2023-05-01T01:35:39.111Z,100.00
2023-05-01T01:38:13.185Z,100.00
2023-05-01T01:40:53.546Z,100.00
2023-05-01T01:43:26.511Z,100.00
2023-05-01T01:46:03.832Z,100.00
2023-05-01T01:48:39.001Z,100.00
2023-05-01T01:51:14.582Z,100.00
2023-05-01T01:53:48.501Z,100.00
2023-05-01T01:56:21.668Z,100.00
2023-05-01T01:58:54.002Z,100.00
2023-05-01T02:01:26.215Z,100.00
2023-05-01T02:03:58.340Z,100.00
2023-05-01T02:06:34.148Z,100.00
2023-05-01T02:09:06.611Z,100.00
2023-05-01T02:11:39.521Z,100.00
2023-05-01T02:14:10.748Z,100.00
2023-05-01T02:16:41.053Z,100.00
2023-05-01T02:19:11.614Z,100.00
2023-05-01T02:21:48.051Z,100.00
2023-05-01T02:24:19.054Z,100.00
2023-05-01T02:26:53.092Z,100.00
2023-05-01T02:29:22.753Z,100.00
2023-05-01T02:31:52.469Z,100.00
2023-05-01T02:34:22.488Z,100.00
2023-05-01T02:36:54.742Z,100.00
2023-05-01T02:39:24.837Z,100.00
2023-05-01T02:41:58.561Z,100.00
2023-05-01T02:44:30.963Z,100.00
2023-05-01T02:47:03.637Z,100.00
2023-05-01T02:49:34.682Z,100.00
2023-05-01T02:52:08.077Z,100.00
2023-05-01T02:54:38.825Z,100.00
2023-05-01T02:57:08.755Z,100.00
2023-05-01T02:59:38.451Z,100.00
2023-05-01T03:02:08.182Z,100.00
2023-05-01T03:04:38.250Z,100.00
2023-05-01T03:07:10.967Z,100.00
2023-05-01T03:09:40.693Z,100.00
2023-05-01T03:12:10.912Z,100.00
2023-05-01T03:14:40.594Z,100.00
2023-05-01T03:17:11.313Z,100.00
2023-05-01T03:19:42.517Z,100.00
2023-05-01T03:22:15.238Z,100.00
2023-05-01T03:24:44.954Z,100.00
2023-05-01T03:27:14.709Z,100.00
2023-05-01T03:29:47.336Z,100.00
2023-05-01T03:32:18.300Z,100.00
2023-05-01T03:34:49.711Z,100.00
2023-05-01T03:37:23.579Z,100.00
2023-05-01T03:39:54.384Z,100.00
2023-05-01T03:42:50.268Z,100.00
2023-05-01T03:45:23.992Z,100.00
2023-05-01T03:47:53.887Z,100.00
2023-05-01T03:50:23.768Z,100.00
2023-05-01T03:52:57.756Z,100.00
2023-05-01T03:55:27.468Z,100.00
2023-05-01T03:57:57.194Z,100.00
2023-05-01T04:00:27.833Z,100.00
2023-05-01T04:02:58.708Z,100.00
2023-05-01T04:05:28.663Z,100.00
2023-05-01T04:08:06.180Z,100.00
2023-05-01T04:10:36.231Z,100.00
2023-05-01T04:13:07.921Z,100.00
2023-05-01T04:15:38.754Z,100.00
2023-05-01T04:18:08.504Z,100.00
2023-05-01T04:20:38.528Z,100.00
2023-05-01T04:23:11.790Z,100.00
2023-05-01T04:25:41.578Z,100.00
2023-05-01T04:28:16.937Z,100.00
2023-05-01T04:30:46.621Z,100.00
2023-05-01T04:33:16.575Z,100.00
2023-05-01T04:35:46.328Z,100.00
2023-05-01T04:38:18.666Z,100.00
2023-05-01T04:40:48.666Z,100.00
2023-05-01T04:43:18.341Z,100.00
2023-05-01T04:45:48.156Z,100.00
2023-05-01T04:48:17.875Z,100.00
2023-05-01T04:50:47.679Z,100.00
2023-05-01T04:53:20.087Z,100.00
2023-05-01T04:55:49.994Z,100.00
2023-05-01T04:58:20.840Z,100.00
2023-05-01T05:00:54.214Z,100.00
2023-05-01T05:03:25.992Z,100.00
2023-05-01T05:05:55.873Z,100.00
2023-05-01T05:08:29.011Z,100.00
2023-05-01T05:11:04.585Z,100.00
2023-05-01T05:13:54.812Z,100.00
2023-05-01T05:16:24.569Z,100.00
2023-05-01T05:18:54.296Z,100.00
2023-05-01T05:21:24.036Z,100.00
2023-05-01T05:24:00.992Z,100.00
2023-05-01T05:26:31.263Z,100.00
2023-05-01T05:29:04.798Z,100.00
2023-05-01T05:31:35.301Z,100.00
2023-05-01T05:34:05.359Z,100.00
2023-05-01T05:36:35.715Z,100.00
2023-05-01T05:39:08.174Z,100.00
2023-05-01T05:41:38.455Z,100.00
2023-05-01T05:44:08.264Z,100.00
2023-05-01T05:46:38.299Z,100.00
2023-05-01T05:49:08.161Z,100.00
2023-05-01T05:51:37.997Z,100.00
2023-05-01T05:54:11.792Z,100.00
2023-05-01T05:56:41.715Z,100.00
2023-05-01T05:59:12.079Z,100.00
2023-05-01T06:01:42.948Z,100.00
2023-05-01T06:04:14.316Z,100.00
2023-05-01T06:06:45.708Z,100.00
2023-05-01T06:09:19.148Z,100.00
2023-05-01T06:11:48.934Z,100.00
2023-05-01T06:14:19.346Z,100.00
2023-05-01T06:16:49.349Z,100.00
2023-05-01T06:19:19.052Z,100.00
2023-05-01T06:21:52.751Z,100.00
2023-05-01T06:24:25.049Z,100.00
2023-05-01T06:26:56.615Z,100.00
2023-05-01T06:29:26.325Z,100.00
2023-05-01T06:31:56.622Z,100.00
2023-05-01T06:34:26.519Z,100.00
2023-05-01T06:36:57.474Z,100.00
2023-05-01T06:39:29.798Z,100.00
2023-05-01T06:41:59.631Z,100.00
2023-05-01T06:44:41.741Z,95.37
2023-05-01T06:47:11.879Z,90.13
2023-05-01T06:49:43.818Z,86.98
2023-05-01T06:52:13.647Z,80.11
2023-05-01T06:54:45.990Z,81.91
2023-05-01T06:57:15.762Z,84.36
2023-05-01T06:59:45.937Z,89.19
2023-05-01T07:02:15.745Z,90.65
2023-05-01T07:04:45.999Z,83.90
2023-05-01T07:07:15.778Z,81.44
2023-05-01T07:09:47.999Z,77.03
2023-05-01T07:12:17.660Z,78.59
2023-05-01T07:14:47.531Z,77.47
2023-05-01T07:17:17.606Z,73.30
2023-05-01T07:19:47.363Z,74.88
2023-05-01T07:22:17.087Z,69.27
2023-05-01T07:24:49.384Z,66.42
2023-05-01T07:27:19.048Z,66.03
2023-05-01T07:29:48.781Z,65.88
2023-05-01T07:32:18.509Z,65.55
2023-05-01T07:34:48.229Z,67.52
2023-05-01T07:37:18.919Z,68.88
2023-05-01T07:39:51.200Z,68.55
2023-05-01T07:42:21.035Z,66.25
2023-05-01T07:44:53.220Z,65.03
2023-05-01T07:47:23.560Z,65.36
2023-05-01T07:49:53.319Z,66.38
2023-05-01T07:52:23.253Z,64.83
2023-05-01T07:54:55.816Z,64.20
2023-05-01T07:57:26.046Z,64.19
2023-05-01T07:59:57.937Z,64.75
2023-05-01T08:02:28.199Z,66.46
2023-05-01T08:04:58.136Z,65.03
2023-05-01T08:07:27.960Z,63.69
2023-05-01T08:10:00.743Z,65.96
2023-05-01T08:12:31.792Z,68.32
2023-05-01T08:15:01.470Z,69.07
2023-05-01T08:17:31.676Z,72.01
2023-05-01T08:20:03.045Z,76.23
2023-05-01T08:22:33.356Z,83.78
2023-05-01T08:25:06.042Z,80.25
2023-05-01T08:27:35.821Z,78.11
2023-05-01T08:30:05.773Z,76.84
2023-05-01T08:32:35.641Z,69.14
2023-05-01T08:35:05.685Z,66.59
2023-05-01T08:37:35.445Z,65.87
2023-05-01T08:40:09.861Z,64.17
2023-05-01T08:42:40.141Z,63.24
2023-05-01T08:45:12.062Z,65.37
2023-05-01T08:47:43.660Z,66.89
2023-05-01T08:50:14.352Z,67.67
2023-05-01T08:52:45.133Z,66.97
2023-05-01T08:55:18.607Z,66.67
2023-05-01T08:57:49.528Z,66.63
2023-05-01T09:00:22.353Z,64.11
2023-05-01T09:02:53.630Z,64.49
2023-05-01T09:05:23.871Z,65.78
2023-05-01T09:07:53.625Z,63.52
2023-05-01T09:10:27.391Z,64.56
2023-05-01T09:12:59.478Z,58.84
2023-05-01T09:15:30.608Z,55.92
2023-05-01T09:18:04.185Z,57.20
2023-05-01T09:20:37.447Z,57.67
2023-05-01T09:23:07.270Z,63.83
2023-05-01T09:25:39.719Z,65.11
2023-05-01T09:28:10.397Z,62.13
2023-05-01T09:30:42.297Z,54.60
2023-05-01T09:33:13.836Z,55.04
2023-05-01T09:35:54.526Z,56.26
2023-05-01T09:38:25.669Z,58.86
2023-05-01T09:41:08.093Z,58.38
2023-05-01T09:43:37.980Z,57.53
2023-05-01T09:46:10.088Z,58.63
2023-05-01T09:48:41.222Z,54.70
2023-05-01T09:51:24.752Z,53.96
2023-05-01T09:53:55.070Z,50.11
2023-05-01T09:56:28.327Z,52.98
2023-05-01T09:59:00.075Z,49.68
2023-05-01T10:01:43.505Z,48.15
2023-05-01T10:04:13.442Z,47.85
2023-05-01T10:06:44.151Z,46.37
2023-05-01T10:09:17.853Z,47.82
2023-05-01T10:11:55.901Z,49.79
2023-05-01T10:14:28.314Z,54.05
2023-05-01T10:16:58.294Z,57.26
2023-05-01T10:19:28.621Z,50.61
2023-05-01T10:21:58.674Z,47.20
2023-05-01T10:24:28.538Z,47.94
2023-05-01T10:27:03.686Z,47.63
2023-05-01T10:29:34.622Z,47.09
2023-05-01T10:32:04.985Z,47.11
2023-05-01T10:34:37.804Z,47.79
2023-05-01T10:37:15.678Z,48.64
2023-05-01T10:39:45.367Z,55.17
2023-05-01T10:42:18.541Z,58.16
2023-05-01T10:44:49.786Z,57.83
2023-05-01T10:47:50.232Z,56.16
2023-05-01T10:50:19.967Z,55.39
2023-05-01T10:53:20.135Z,52.86
2023-05-01T10:55:51.460Z,53.25
2023-05-01T10:58:52.022Z,52.58
2023-05-01T11:01:38.109Z,53.71
2023-05-01T11:04:10.805Z,54.28
2023-05-01T11:06:40.621Z,53.96
2023-05-01T11:09:41.361Z,52.84
2023-05-01T11:12:12.684Z,52.76
2023-05-01T11:15:08.499Z,53.16
2023-05-01T11:17:52.602Z,51.17
2023-05-01T11:20:52.712Z,50.18
2023-05-01T11:23:23.943Z,50.79
2023-05-01T11:26:03.830Z,49.68
2023-05-01T11:28:34.541Z,50.52
2023-05-01T11:31:05.134Z,49.10
2023-05-01T11:33:37.632Z,48.54
2023-05-01T11:36:09.234Z,46.75
2023-05-01T11:38:40.047Z,47.80
2023-05-01T11:41:09.822Z,49.56
2023-05-01T11:43:51.961Z,48.61
2023-05-01T11:46:30.133Z,53.39
2023-05-01T11:49:04.338Z,52.50
2023-05-01T11:51:35.065Z,51.81
2023-05-01T11:54:05.822Z,51.62
2023-05-01T11:56:36.874Z,52.78
2023-05-01T11:59:15.816Z,53.27
2023-05-01T12:01:47.366Z,52.96
2023-05-01T12:04:29.632Z,52.23
2023-05-01T12:07:02.007Z,52.34
2023-05-01T12:09:32.382Z,53.11
2023-05-01T12:12:03.549Z,56.11
2023-05-01T12:14:33.874Z,56.56
2023-05-01T12:17:04.371Z,55.41
2023-05-01T12:19:37.051Z,53.16
2023-05-01T12:22:10.271Z,53.22
2023-05-01T12:24:40.183Z,53.39
2023-05-01T12:27:10.169Z,53.89
2023-05-01T12:29:44.925Z,54.48
2023-05-01T12:32:14.925Z,52.41
2023-05-01T12:34:48.552Z,51.23
2023-05-01T12:37:18.393Z,51.43
2023-05-01T12:39:48.661Z,49.86
2023-05-01T12:42:18.848Z,49.53
2023-05-01T12:44:48.811Z,50.52
2023-05-01T12:47:18.554Z,51.12
2023-05-01T12:49:51.128Z,50.52
2023-05-01T12:52:30.148Z,50.49
2023-05-01T12:55:05.914Z,51.40
2023-05-01T12:57:36.789Z,51.46
2023-05-01T13:00:07.866Z,51.43
2023-05-01T13:02:37.990Z,51.19
2023-05-01T13:05:14.773Z,50.35
2023-05-01T13:07:51.437Z,49.40
2023-05-01T13:10:34.401Z,49.78
2023-05-01T13:13:04.402Z,49.75
2023-05-01T13:15:34.260Z,51.21
2023-05-01T13:18:07.294Z,49.98
2023-05-01T13:20:41.368Z,50.64
2023-05-01T13:23:13.513Z,49.67
2023-05-01T13:25:43.462Z,50.92
2023-05-01T13:28:13.559Z,51.48
2023-05-01T13:30:43.348Z,50.72
2023-05-01T13:33:13.883Z,50.47
2023-05-01T13:35:46.291Z,50.40
2023-05-01T13:38:16.677Z,50.25
2023-05-01T13:40:46.572Z,50.43
2023-05-01T13:43:17.751Z,51.72
2023-05-01T13:45:47.602Z,49.62
2023-05-01T13:48:20.270Z,49.37
2023-05-01T13:50:52.800Z,52.72
2023-05-01T13:53:25.442Z,52.99
2023-05-01T13:55:55.193Z,51.64
2023-05-01T13:58:24.889Z,51.47
2023-05-01T14:00:54.953Z,51.75
2023-05-01T14:03:25.629Z,52.28
2023-05-01T14:05:58.098Z,51.88
2023-05-01T14:08:31.257Z,49.86
2023-05-01T14:11:01.569Z,49.59
2023-05-01T14:13:31.415Z,48.06
2023-05-01T14:16:01.445Z,48.08
2023-05-01T14:18:31.514Z,46.57
2023-05-01T14:21:05.017Z,47.76
2023-05-01T14:23:35.792Z,49.27
2023-05-01T14:26:08.291Z,49.54
2023-05-01T14:28:44.827Z,48.87
2023-05-01T14:31:19.931Z,48.77
2023-05-01T14:33:50.009Z,48.52
2023-05-01T14:36:22.566Z,47.52
2023-05-01T14:38:52.442Z,48.41
2023-05-01T14:41:22.493Z,52.71
2023-05-01T14:43:53.973Z,52.24
2023-05-01T14:46:31.373Z,52.19
2023-05-01T14:49:02.240Z,51.92
2023-05-01T14:51:36.078Z,53.02
2023-05-01T14:54:06.291Z,53.00
2023-05-01T14:56:36.189Z,54.26
2023-05-01T14:59:06.407Z,56.31
2023-05-01T15:01:36.889Z,55.70
2023-05-01T15:04:07.803Z,58.26
2023-05-01T15:06:40.266Z,59.24
2023-05-01T15:09:10.208Z,56.16
2023-05-01T15:11:39.945Z,54.96
2023-05-01T15:14:09.624Z,55.64
2023-05-01T15:16:39.386Z,53.73
2023-05-01T15:19:09.053Z,54.40
2023-05-01T15:21:41.416Z,56.87
2023-05-01T15:24:11.134Z,58.99
2023-05-01T15:26:41.061Z,59.54
2023-05-01T15:29:10.767Z,65.28
2023-05-01T15:31:40.564Z,62.16
2023-05-01T15:34:10.352Z,62.75
2023-05-01T15:36:42.609Z,63.88
2023-05-01T15:39:13.402Z,63.70
2023-05-01T15:41:43.461Z,66.44
2023-05-01T15:44:13.374Z,63.28
2023-05-01T15:46:45.893Z,61.66
2023-05-01T15:49:15.656Z,61.40
2023-05-01T15:51:48.078Z,62.72
2023-05-01T15:54:17.774Z,62.14
2023-05-01T15:56:47.477Z,61.73
2023-05-01T15:59:17.731Z,62.73
2023-05-01T16:01:47.690Z,63.15
2023-05-01T16:04:17.460Z,61.32
2023-05-01T16:06:49.850Z,61.36
2023-05-01T16:09:20.338Z,62.20
2023-05-01T16:11:50.204Z,63.60
2023-05-01T16:14:20.666Z,65.65
2023-05-01T16:16:51.186Z,66.12
2023-05-01T16:19:21.092Z,69.87
2023-05-01T16:21:53.341Z,69.72
2023-05-01T16:24:23.417Z,72.32
2023-05-01T16:26:53.356Z,73.60
2023-05-01T16:29:23.388Z,78.89
2023-05-01T16:31:53.555Z,78.70
2023-05-01T16:34:27.655Z,79.37
2023-05-01T16:37:00.166Z,80.62
2023-05-01T16:39:30.117Z,78.46
2023-05-01T16:41:59.935Z,74.21
2023-05-01T16:44:30.441Z,75.62
2023-05-01T16:47:06.136Z,72.08
2023-05-01T16:49:36.371Z,70.38
2023-05-01T16:52:13.507Z,71.59
2023-05-01T16:54:43.645Z,76.97
2023-05-01T16:57:13.538Z,76.12
2023-05-01T16:59:43.403Z,72.67
2023-05-01T17:02:13.594Z,72.27
2023-05-01T17:04:43.652Z,72.72
2023-05-01T17:07:16.170Z,73.79
2023-05-01T17:09:46.043Z,74.41
2023-05-01T17:12:15.830Z,76.47
2023-05-01T17:14:45.744Z,73.69
2023-05-01T17:17:15.749Z,74.59
2023-05-01T17:19:45.472Z,77.32
2023-05-01T17:22:17.945Z,75.28
2023-05-01T17:24:47.858Z,79.96
2023-05-01T17:27:17.726Z,80.65
2023-05-01T17:29:47.545Z,74.98
2023-05-01T17:32:33.183Z,69.33
2023-05-01T17:35:07.460Z,67.35
2023-05-01T17:37:40.272Z,64.53
2023-05-01T17:40:11.667Z,68.53
2023-05-01T17:42:42.197Z,70.33
2023-05-01T17:45:13.368Z,73.25
2023-05-01T17:47:45.157Z,75.33
2023-05-01T17:50:16.181Z,74.72
2023-05-01T17:52:48.656Z,76.12
2023-05-01T17:55:18.668Z,72.70
2023-05-01T17:57:48.855Z,65.06
2023-05-01T18:00:19.680Z,64.35
2023-05-01T18:02:49.994Z,65.42
2023-05-01T18:05:20.007Z,65.06
2023-05-01T18:07:52.252Z,67.05
2023-05-01T18:10:22.591Z,67.10
2023-05-01T18:12:52.787Z,69.87
2023-05-01T18:15:23.166Z,71.31
2023-05-01T18:17:53.250Z,69.79
2023-05-01T18:20:23.046Z,71.71
2023-05-01T18:22:56.245Z,69.70
2023-05-01T18:25:25.982Z,70.70
2023-05-01T18:27:55.831Z,71.09
2023-05-01T18:30:25.666Z,70.10
2023-05-01T18:32:55.504Z,69.71
2023-05-01T18:35:25.464Z,71.42
2023-05-01T18:37:57.842Z,71.70
2023-05-01T18:40:27.968Z,70.20
2023-05-01T18:42:58.024Z,72.37
2023-05-01T18:45:27.891Z,73.55
2023-05-01T18:47:57.721Z,73.44
2023-05-01T18:50:27.588Z,76.57
2023-05-01T18:53:00.015Z,81.25
2023-05-01T18:55:29.792Z,78.76
2023-05-01T18:58:00.616Z,76.56
2023-05-01T19:00:30.861Z,75.51
2023-05-01T19:03:00.628Z,84.29
2023-05-01T19:05:30.496Z,80.37
2023-05-01T19:08:05.402Z,83.99
2023-05-01T19:10:37.378Z,86.20
2023-05-01T19:13:08.634Z,82.43
2023-05-01T19:15:38.356Z,87.24
2023-05-01T19:18:08.728Z,88.30
2023-05-01T19:20:38.789Z,87.15
2023-05-01T19:23:11.010Z,85.47
2023-05-01T19:25:40.724Z,83.30
2023-05-01T19:28:10.414Z,82.85
2023-05-01T19:30:41.409Z,85.02
2023-05-01T19:33:11.630Z,91.88
2023-05-01T19:35:41.362Z,92.84
2023-05-01T19:38:13.638Z,94.37
2023-05-01T19:40:45.115Z,95.62
2023-05-01T19:43:16.124Z,92.17
2023-05-01T19:45:46.026Z,94.02
2023-05-01T19:48:15.770Z,100.00
2023-05-01T19:50:51.201Z,100.00
2023-05-01T19:53:23.751Z,96.86
2023-05-01T19:55:53.669Z,94.83
2023-05-01T19:58:23.315Z,91.76
2023-05-01T20:00:56.330Z,90.00
2023-05-01T20:03:26.656Z,91.14
2023-05-01T20:05:56.881Z,88.84
2023-05-01T20:08:29.318Z,84.38
2023-05-01T20:10:59.161Z,84.08
2023-05-01T20:13:28.786Z,82.64
2023-05-01T20:15:58.542Z,82.78
2023-05-01T20:18:28.474Z,82.53
2023-05-01T20:20:58.290Z,88.01
2023-05-01T20:23:30.590Z,86.08
2023-05-01T20:26:00.348Z,84.84
2023-05-01T20:28:30.092Z,83.83
2023-05-01T20:31:00.353Z,85.37
2023-05-01T20:33:30.006Z,93.13
2023-05-01T20:36:00.465Z,97.85
2023-05-01T20:38:32.752Z,98.67
2023-05-01T20:41:02.517Z,100.00
2023-05-01T20:43:32.290Z,100.00
2023-05-01T20:46:02.027Z,100.00
2023-05-01T20:48:31.848Z,100.00
2023-05-01T20:51:01.589Z,100.00
2023-05-01T20:53:33.904Z,100.00
2023-05-01T20:56:03.654Z,100.00
2023-05-01T20:58:33.328Z,100.00
2023-05-01T21:01:03.131Z,100.00
2023-05-01T21:03:32.963Z,100.00
2023-05-01T21:06:03.374Z,100.00
2023-05-01T21:08:36.363Z,100.00
2023-05-01T21:11:06.348Z,100.00
2023-05-01T21:13:36.089Z,100.00
2023-05-01T21:16:09.077Z,100.00
2023-05-01T21:18:39.205Z,100.00
2023-05-01T21:21:09.049Z,100.00
2023-05-01T21:23:48.680Z,100.00
2023-05-01T21:26:19.575Z,100.00
2023-05-01T21:28:49.481Z,100.00
2023-05-01T21:31:19.850Z,100.00
2023-05-01T21:33:50.811Z,100.00
2023-05-01T21:36:20.961Z,100.00
2023-05-01T21:38:53.325Z,100.00
2023-05-01T21:41:23.003Z,100.00
2023-05-01T21:43:53.262Z,100.00
2023-05-01T21:46:23.009Z,100.00
2023-05-01T21:48:54.115Z,100.00
2023-05-01T21:51:28.654Z,100.00
2023-05-01T21:54:02.672Z,100.00
2023-05-01T21:56:33.354Z,99.86
2023-05-01T21:59:04.132Z,99.21
2023-05-01T22:01:34.470Z,100.00
2023-05-01T22:04:04.346Z,100.00
2023-05-01T22:06:34.195Z,100.00
2023-05-01T22:09:06.794Z,100.00
2023-05-01T22:11:36.457Z,100.00
2023-05-01T22:14:06.480Z,100.00
2023-05-01T22:16:36.590Z,100.00
2023-05-01T22:19:06.457Z,100.00
2023-05-01T22:21:36.268Z,100.00
2023-05-01T22:24:09.098Z,100.00
2023-05-01T22:26:38.865Z,100.00
2023-05-01T22:29:08.681Z,100.00
2023-05-01T22:31:38.546Z,100.00
2023-05-01T22:34:09.190Z,100.00
2023-05-01T22:36:39.017Z,100.00
2023-05-01T22:39:11.669Z,100.00
2023-05-01T22:41:41.595Z,100.00
2023-05-01T22:44:11.428Z,100.00
2023-05-01T22:46:41.609Z,100.00
2023-05-01T22:49:11.490Z,100.00
2023-05-01T22:51:41.342Z,100.00
2023-05-01T22:54:13.653Z,100.00
2023-05-01T22:56:43.923Z,100.00
2023-05-01T22:59:13.594Z,100.00
2023-05-01T23:01:43.303Z,100.00
2023-05-01T23:04:13.246Z,100.00
2023-05-01T23:06:43.421Z,100.00
2023-05-01T23:09:16.276Z,100.00
2023-05-01T23:11:48.847Z,100.00
2023-05-01T23:14:20.794Z,100.00
2023-05-01T23:16:50.819Z,100.00
2023-05-01T23:19:25.028Z,100.00
2023-05-01T23:22:08.812Z,100.00
2023-05-01T23:24:47.872Z,100.00
2023-05-01T23:27:18.873Z,100.00
2023-05-01T23:29:57.577Z,100.00
2023-05-01T23:32:29.560Z,100.00
2023-05-01T23:35:05.867Z,100.00
2023-05-01T23:37:35.841Z,100.00
2023-05-01T23:40:09.693Z,100.00
2023-05-01T23:42:39.902Z,100.00
2023-05-01T23:45:11.237Z,100.00
2023-05-01T23:47:41.562Z,100.00
2023-05-01T23:50:12.767Z,100.00
2023-05-01T23:52:42.528Z,100.00
2023-05-01T23:55:14.895Z,100.00
2023-05-01T23:57:44.593Z,100.00
